createdAt,value
2022-12-12T00:02:10.482Z,15.90
2022-12-12T00:04:38.197Z,15.30
2022-12-12T00:07:05.706Z,15.45
2022-12-12T00:09:33.789Z,14.57
2022-12-12T00:12:01.216Z,14.25
2022-12-12T00:14:28.626Z,15.80
2022-12-12T00:16:56.045Z,15.57
2022-12-12T00:19:23.507Z,15.23
2022-12-12T00:21:50.983Z,15.05
2022-12-12T00:24:18.459Z,15.02
2022-12-12T00:26:45.878Z,15.07
2022-12-12T00:29:13.360Z,15.45
2022-12-12T00:31:41.838Z,15.15
2022-12-12T00:34:10.200Z,16.17
2022-12-12T00:36:37.607Z,14.73
2022-12-12T00:39:05.394Z,15.75
2022-12-12T00:41:32.833Z,16.30
2022-12-12T00:44:00.319Z,15.75
2022-12-12T00:46:27.781Z,16.98
2022-12-12T00:48:58.313Z,17.77
2022-12-12T00:51:26.597Z,17.00
2022-12-12T00:53:55.885Z,16.25
2022-12-12T00:56:23.960Z,17.05
2022-12-12T00:58:51.892Z,18.35
2022-12-12T01:01:21.167Z,16.13
2022-12-12T01:03:48.728Z,16.50
2022-12-12T01:06:16.281Z,15.30
2022-12-12T01:08:43.709Z,15.70
2022-12-12T01:11:11.668Z,15.73
2022-12-12T01:13:39.790Z,16.23
2022-12-12T01:16:08.987Z,15.18
2022-12-12T01:18:36.838Z,15.57
2022-12-12T01:21:04.973Z,16.00
2022-12-12T01:23:32.452Z,15.93
2022-12-12T01:26:00.914Z,15.95
2022-12-12T01:28:28.465Z,16.55
2022-12-12T01:30:56.033Z,17.23
2022-12-12T01:33:23.545Z,16.45
2022-12-12T01:35:51.159Z,17.48
2022-12-12T01:38:18.714Z,16.27
2022-12-12T01:40:46.189Z,16.60
2022-12-12T01:43:14.357Z,15.93
2022-12-12T01:45:56.793Z,15.32
2022-12-12T01:48:26.181Z,15.43
2022-12-12T01:50:54.042Z,15.02
2022-12-12T01:53:21.810Z,15.55
2022-12-12T01:55:50.277Z,14.75
2022-12-12T01:58:18.045Z,16.17
2022-12-12T02:00:45.928Z,15.02
2022-12-12T02:03:13.442Z,15.32
2022-12-12T02:05:43.405Z,14.75
2022-12-12T02:08:11.711Z,14.57
2022-12-12T02:10:39.354Z,13.98
2022-12-12T02:13:09.290Z,14.25
2022-12-12T02:15:42.992Z,14.32
2022-12-12T02:18:29.516Z,14.43
2022-12-12T02:21:09.234Z,14.85
2022-12-12T02:23:39.522Z,14.02
2022-12-12T02:26:22.129Z,14.77
2022-12-12T02:29:08.375Z,13.60
2022-12-12T02:31:41.496Z,14.38
2022-12-12T02:34:19.781Z,13.30
2022-12-12T02:36:47.571Z,14.55
2022-12-12T02:39:21.005Z,15.38
2022-12-12T02:41:51.458Z,14.30
2022-12-12T02:44:25.066Z,14.13
2022-12-12T02:47:01.975Z,14.10
2022-12-12T02:49:29.605Z,14.48
2022-12-12T02:51:58.164Z,14.68
2022-12-12T02:54:25.584Z,13.18
2022-12-12T02:56:57.520Z,14.20
2022-12-12T02:59:34.071Z,15.27
2022-12-12T03:02:20.320Z,14.35
2022-12-12T03:05:06.653Z,13.75
2022-12-12T03:07:52.824Z,13.68
2022-12-12T03:10:20.354Z,13.88
2022-12-12T03:13:09.533Z,12.82
2022-12-12T03:15:44.778Z,13.85
2022-12-12T03:18:17.614Z,13.40
2022-12-12T03:20:48.871Z,13.45
2022-12-12T03:23:18.730Z,13.00
2022-12-12T03:25:50.557Z,13.63
2022-12-12T03:28:27.337Z,13.77
2022-12-12T03:30:56.502Z,12.68
2022-12-12T03:33:30.079Z,13.90
2022-12-12T03:36:02.194Z,12.93
2022-12-12T03:38:32.615Z,13.40
2022-12-12T03:41:02.451Z,13.13
2022-12-12T03:43:41.197Z,14.60
2022-12-12T03:46:15.054Z,14.50
2022-12-12T03:48:44.817Z,14.27
2022-12-12T03:51:13.870Z,14.27
2022-12-12T03:53:53.566Z,13.65
2022-12-12T03:56:32.386Z,13.70
2022-12-12T03:59:07.520Z,14.23
2022-12-12T04:01:43.414Z,13.25
2022-12-12T04:04:30.351Z,13.70
2022-12-12T04:07:03.869Z,13.88
2022-12-12T04:09:50.409Z,14.75
2022-12-12T04:12:42.890Z,14.23
2022-12-12T04:15:19.548Z,14.27
2022-12-12T04:17:56.074Z,14.88
2022-12-12T04:20:45.534Z,13.82
2022-12-12T04:23:19.055Z,15.13
2022-12-12T04:26:28.059Z,14.15
2022-12-12T04:29:04.550Z,14.43
2022-12-12T04:31:33.096Z,13.18
2022-12-12T04:34:04.894Z,13.35
2022-12-12T04:36:33.147Z,13.23
2022-12-12T04:39:01.372Z,13.80
2022-12-12T04:41:29.740Z,14.02
2022-12-12T04:43:57.316Z,13.70
2022-12-12T04:46:27.942Z,13.38
2022-12-12T04:49:00.590Z,13.60
2022-12-12T04:51:30.761Z,14.82
2022-12-12T04:54:10.520Z,13.35
2022-12-12T04:56:39.609Z,14.07
2022-12-12T04:59:07.529Z,14.00
2022-12-12T05:01:52.889Z,13.57
2022-12-12T05:04:34.334Z,14.05
2022-12-12T05:07:07.238Z,13.07
2022-12-12T05:09:35.389Z,14.95
2022-12-12T05:12:02.920Z,14.57
2022-12-12T05:14:31.450Z,14.98
2022-12-12T05:17:10.518Z,13.52
2022-12-12T05:19:37.955Z,14.80
2022-12-12T05:22:05.413Z,14.82
2022-12-12T05:24:32.852Z,14.02
2022-12-12T05:27:00.817Z,16.02
2022-12-12T05:29:28.321Z,15.77
2022-12-12T05:31:55.764Z,14.35
2022-12-12T05:34:23.149Z,15.48
2022-12-12T05:36:51.136Z,14.60
2022-12-12T05:39:18.529Z,15.88
2022-12-12T05:41:45.887Z,14.57
2022-12-12T05:44:13.368Z,14.77
2022-12-12T05:46:40.816Z,14.50
2022-12-12T05:49:08.370Z,15.45
2022-12-12T05:51:35.795Z,15.30
2022-12-12T05:54:03.248Z,14.95
2022-12-12T05:56:30.715Z,14.23
2022-12-12T05:58:58.179Z,13.40
2022-12-12T06:01:25.597Z,14.40
2022-12-12T06:03:53.048Z,14.45
2022-12-12T06:06:21.781Z,12.98
2022-12-12T06:08:49.253Z,13.60
2022-12-12T06:11:16.686Z,12.73
2022-12-12T06:13:44.117Z,13.13
2022-12-12T06:16:13.552Z,13.57
2022-12-12T06:18:40.990Z,13.55
2022-12-12T06:21:09.354Z,13.15
2022-12-12T06:23:37.688Z,12.13
2022-12-12T06:26:05.700Z,13.55
2022-12-12T06:28:33.290Z,13.00
2022-12-12T06:31:00.760Z,13.20
2022-12-12T06:33:28.654Z,12.88
2022-12-12T06:36:03.369Z,13.75
2022-12-12T06:38:31.490Z,14.73
2022-12-12T06:40:59.024Z,14.27
2022-12-12T06:43:26.709Z,14.38
2022-12-12T06:45:54.161Z,14.18
2022-12-12T06:48:21.606Z,13.75
2022-12-12T06:50:48.992Z,15.27
2022-12-12T06:53:16.762Z,15.25
2022-12-12T06:55:44.670Z,15.95
2022-12-12T06:58:12.318Z,15.98
2022-12-12T07:00:39.742Z,15.95
2022-12-12T07:03:07.283Z,15.93
2022-12-12T07:05:34.803Z,16.30
2022-12-12T07:08:03.012Z,15.93
2022-12-12T07:10:31.281Z,16.10
2022-12-12T07:12:58.694Z,14.57
2022-12-12T07:15:26.086Z,12.95
2022-12-12T07:17:53.937Z,14.30
2022-12-12T07:20:21.532Z,13.85
2022-12-12T07:22:48.988Z,14.57
2022-12-12T07:25:16.402Z,13.25
2022-12-12T07:27:43.956Z,13.50
2022-12-12T07:30:12.509Z,13.32
2022-12-12T07:32:40.005Z,15.60
2022-12-12T07:35:07.545Z,14.50
2022-12-12T07:37:35.102Z,12.77
2022-12-12T07:40:02.610Z,13.02
2022-12-12T07:42:30.081Z,12.70
2022-12-12T07:44:57.540Z,12.13
2022-12-12T07:47:24.949Z,12.10
2022-12-12T07:49:52.461Z,13.00
2022-12-12T07:52:19.813Z,11.90
2022-12-12T07:54:47.307Z,11.77
2022-12-12T07:57:14.722Z,12.40
2022-12-12T07:59:42.141Z,12.95
2022-12-12T08:02:10.660Z,18.23
2022-12-12T08:04:38.352Z,12.27
2022-12-12T08:07:08.591Z,11.48
2022-12-12T08:09:36.997Z,11.65
2022-12-12T08:12:04.618Z,11.77
2022-12-12T08:14:32.319Z,11.55
2022-12-12T08:16:59.961Z,11.30
2022-12-12T08:19:27.347Z,10.93
2022-12-12T08:21:54.753Z,11.05
2022-12-12T08:24:22.857Z,10.10
2022-12-12T08:26:51.325Z,11.07
2022-12-12T08:29:18.812Z,10.05
2022-12-12T08:31:46.303Z,11.48
2022-12-12T08:34:14.005Z,10.80
2022-12-12T08:36:41.436Z,11.00
2022-12-12T08:39:10.794Z,10.75
2022-12-12T08:41:39.708Z,11.35
2022-12-12T08:44:07.947Z,10.82
2022-12-12T08:46:35.903Z,11.18
2022-12-12T08:49:03.534Z,10.13
2022-12-12T08:51:30.904Z,10.55
2022-12-12T08:53:58.587Z,9.85
2022-12-12T08:56:26.022Z,10.32
2022-12-12T08:58:53.511Z,9.70
2022-12-12T09:01:21.886Z,9.85
2022-12-12T09:03:50.473Z,10.70
2022-12-12T09:06:18.203Z,10.52
2022-12-12T09:08:45.769Z,10.77
2022-12-12T09:11:13.464Z,10.80
2022-12-12T09:13:41.353Z,11.57
2022-12-12T09:16:09.411Z,10.57
2022-12-12T09:18:37.024Z,10.20
2022-12-12T09:21:04.524Z,10.98
2022-12-12T09:23:31.951Z,11.68
2022-12-12T09:25:59.468Z,12.05
2022-12-12T09:28:27.298Z,11.65
2022-12-12T09:30:55.121Z,12.65
2022-12-12T09:33:22.539Z,12.75
2022-12-12T09:35:57.401Z,12.82
2022-12-12T09:38:24.978Z,12.15
2022-12-12T09:40:54.346Z,11.93
2022-12-12T09:43:30.007Z,12.30
2022-12-12T09:45:57.885Z,11.13
2022-12-12T09:48:28.046Z,12.35
2022-12-12T09:50:55.594Z,12.90
2022-12-12T09:53:23.967Z,12.93
2022-12-12T09:56:06.694Z,12.23
2022-12-12T09:58:46.867Z,12.05
2022-12-12T10:01:26.685Z,12.75
2022-12-12T10:04:02.309Z,11.02
2022-12-12T10:06:37.540Z,12.00
2022-12-12T10:09:25.115Z,11.30
2022-12-12T10:11:55.085Z,11.40
2022-12-12T10:14:37.816Z,12.00
2022-12-12T10:17:08.089Z,10.05
2022-12-12T10:19:40.120Z,11.00
2022-12-12T10:22:15.045Z,11.25
2022-12-12T10:24:47.337Z,10.45
2022-12-12T10:27:15.699Z,11.05
2022-12-12T10:29:46.942Z,10.75
2022-12-12T10:32:32.949Z,10.18
2022-12-12T10:35:00.378Z,10.13
2022-12-12T10:37:43.340Z,10.27
2022-12-12T10:40:31.042Z,10.93
2022-12-12T10:43:01.329Z,10.13
2022-12-12T10:45:31.945Z,10.73
2022-12-12T10:47:59.830Z,10.57
2022-12-12T10:50:47.644Z,11.05
2022-12-12T10:53:15.407Z,10.63
2022-12-12T10:55:42.795Z,10.88
2022-12-12T10:58:10.292Z,11.18
2022-12-12T11:00:42.420Z,11.75
2022-12-12T11:03:15.484Z,10.82
2022-12-12T11:05:43.068Z,9.80
2022-12-12T11:08:20.112Z,9.63
2022-12-12T11:10:59.461Z,8.35
2022-12-12T11:13:26.989Z,8.32
2022-12-12T11:16:02.375Z,8.02
2022-12-12T11:18:30.180Z,7.82
2022-12-12T11:21:03.766Z,7.90
2022-12-12T11:23:32.266Z,7.68
2022-12-12T11:26:19.983Z,7.78
2022-12-12T11:28:52.521Z,8.45
2022-12-12T11:31:22.691Z,7.82
2022-12-12T11:33:54.710Z,8.00
2022-12-12T11:36:24.220Z,8.70
2022-12-12T11:38:56.446Z,8.30
2022-12-12T11:41:24.074Z,8.10
2022-12-12T11:43:51.420Z,8.60
2022-12-12T11:46:20.636Z,8.23
2022-12-12T11:48:48.166Z,8.27
2022-12-12T11:51:30.490Z,8.35
2022-12-12T11:53:58.898Z,8.90
2022-12-12T11:56:30.479Z,8.60
2022-12-12T11:59:14.630Z,8.65
2022-12-12T12:01:51.212Z,8.43
2022-12-12T12:04:26.097Z,9.15
2022-12-12T12:07:05.718Z,9.23
2022-12-12T12:09:46.556Z,9.05
2022-12-12T12:12:17.361Z,8.98
2022-12-12T12:15:00.305Z,9.60
2022-12-12T12:17:47.952Z,9.88
2022-12-12T12:20:35.739Z,10.38
2022-12-12T12:23:15.482Z,9.07
2022-12-12T12:25:49.330Z,8.93
2022-12-12T12:28:16.765Z,9.07
2022-12-12T12:31:13.443Z,11.52
2022-12-12T12:33:53.210Z,9.05
2022-12-12T12:36:25.097Z,9.80
2022-12-12T12:39:05.562Z,9.38
2022-12-12T12:41:39.158Z,9.70
2022-12-12T12:44:07.412Z,9.93
2022-12-12T12:46:41.322Z,9.93
2022-12-12T12:49:28.737Z,10.80
2022-12-12T12:52:04.152Z,10.50
2022-12-12T12:54:33.762Z,10.25
2022-12-12T12:57:20.365Z,11.20
2022-12-12T13:00:09.998Z,10.55
2022-12-12T13:02:46.755Z,11.07
2022-12-12T13:05:26.214Z,10.98
2022-12-12T13:08:13.077Z,10.75
2022-12-12T13:10:47.653Z,11.35
2022-12-12T13:13:38.875Z,12.00
2022-12-12T13:16:11.982Z,10.18
2022-12-12T13:18:45.736Z,11.23
2022-12-12T13:21:32.212Z,12.10
2022-12-12T13:23:59.649Z,11.07
2022-12-12T13:26:41.777Z,11.50
2022-12-12T13:29:27.792Z,10.63
2022-12-12T13:32:10.376Z,12.30
2022-12-12T13:34:39.908Z,12.02
2022-12-12T13:37:07.799Z,11.38
2022-12-12T13:39:37.577Z,11.98
2022-12-12T13:42:06.219Z,13.02
2022-12-12T13:44:47.307Z,17.35
2022-12-12T13:47:14.710Z,12.80
2022-12-12T13:49:42.180Z,12.95
2022-12-12T13:52:21.707Z,11.98
2022-12-12T13:54:49.330Z,11.43
2022-12-12T13:57:37.004Z,11.27
2022-12-12T14:00:04.406Z,11.63
2022-12-12T14:02:41.829Z,10.65
2022-12-12T14:05:23.959Z,11.85
2022-12-12T14:07:53.001Z,10.95
2022-12-12T14:10:25.425Z,11.00
2022-12-12T14:12:53.227Z,10.63
2022-12-12T14:15:20.936Z,11.00
2022-12-12T14:18:06.277Z,10.27
2022-12-12T14:20:39.063Z,10.07
2022-12-12T14:23:06.522Z,9.63
2022-12-12T14:25:35.606Z,11.05
2022-12-12T14:28:23.278Z,12.38
2022-12-12T14:30:58.489Z,11.50
2022-12-12T14:35:56.167Z,9.63
2022-12-12T14:38:31.006Z,11.32
2022-12-12T14:41:02.351Z,11.90
2022-12-12T14:43:38.010Z,12.02
2022-12-12T14:46:05.838Z,12.30
2022-12-12T14:48:34.101Z,11.98
2022-12-12T14:51:04.776Z,10.95
2022-12-12T14:53:32.343Z,11.75
2022-12-12T14:56:01.695Z,10.15
2022-12-12T14:58:31.045Z,9.93
2022-12-12T15:01:00.517Z,9.50
2022-12-12T15:03:47.401Z,7.32
2022-12-12T15:06:26.883Z,7.45
2022-12-12T15:08:54.740Z,7.55
2022-12-12T15:11:24.202Z,7.13
2022-12-12T15:13:51.731Z,6.60
2022-12-12T15:16:19.884Z,6.85
2022-12-12T15:18:48.115Z,6.72
2022-12-12T15:21:16.290Z,7.70
2022-12-12T15:23:43.777Z,7.15
2022-12-12T15:26:17.058Z,7.65
2022-12-12T15:28:45.781Z,7.18
2022-12-12T15:31:19.243Z,7.40
2022-12-12T15:33:47.976Z,7.35
2022-12-12T15:36:20.748Z,6.97
2022-12-12T15:39:02.750Z,7.63
2022-12-12T15:41:30.338Z,8.10
2022-12-12T15:43:58.149Z,7.82
2022-12-12T15:46:25.739Z,7.75
2022-12-12T15:48:53.159Z,8.38
2022-12-12T15:51:25.071Z,8.07
2022-12-12T15:53:55.413Z,8.27
2022-12-12T15:56:23.006Z,8.18
2022-12-12T15:58:54.756Z,7.32
2022-12-12T16:01:28.268Z,7.70
2022-12-12T16:03:55.821Z,8.23
2022-12-12T16:06:25.036Z,8.68
2022-12-12T16:09:01.322Z,8.93
2022-12-12T16:11:33.234Z,8.60
2022-12-12T16:14:00.765Z,9.23
2022-12-12T16:16:45.471Z,8.98
2022-12-12T16:19:38.956Z,8.80
2022-12-12T16:22:08.965Z,8.30
2022-12-12T16:24:45.594Z,7.75
2022-12-12T16:27:13.094Z,8.45
2022-12-12T16:29:40.493Z,8.45
2022-12-12T16:32:07.993Z,9.68
2022-12-12T16:34:35.363Z,9.60
2022-12-12T16:37:02.834Z,9.45
2022-12-12T16:39:30.297Z,9.98
2022-12-12T16:41:57.819Z,10.73
2022-12-12T16:44:25.199Z,9.18
2022-12-12T16:46:52.730Z,9.70
2022-12-12T16:49:20.094Z,9.57
2022-12-12T16:51:47.643Z,10.00
2022-12-12T16:54:16.947Z,10.50
2022-12-12T16:56:50.554Z,9.57
2022-12-12T16:59:18.359Z,10.00
2022-12-12T17:01:46.086Z,9.57
2022-12-12T17:04:21.055Z,10.00
2022-12-12T17:06:48.782Z,10.20
2022-12-12T17:09:16.489Z,11.07
2022-12-12T17:11:44.026Z,10.30
2022-12-12T17:14:16.895Z,11.40
2022-12-12T17:16:44.436Z,10.70
2022-12-12T17:19:11.844Z,11.43
2022-12-12T17:21:39.335Z,13.07
2022-12-12T17:24:07.198Z,12.73
2022-12-12T17:26:35.340Z,11.85
2022-12-12T17:29:03.250Z,13.75
2022-12-12T17:31:30.958Z,13.27
2022-12-12T17:33:59.295Z,12.93
2022-12-12T17:36:27.266Z,12.38
2022-12-12T17:38:54.703Z,12.82
2022-12-12T17:41:22.211Z,12.55
2022-12-12T17:43:55.231Z,11.57
2022-12-12T17:46:23.786Z,11.73
2022-12-12T17:48:53.039Z,11.95
2022-12-12T17:51:23.350Z,11.05
2022-12-12T17:53:52.577Z,10.60
2022-12-12T17:56:21.603Z,11.07
2022-12-12T17:58:49.792Z,10.20
2022-12-12T18:01:18.633Z,9.63
2022-12-12T18:03:46.358Z,9.63
2022-12-12T18:06:14.370Z,9.52
2022-12-12T18:08:42.033Z,10.02
2022-12-12T18:11:10.450Z,9.43
2022-12-12T18:13:38.940Z,10.32
2022-12-12T18:16:07.413Z,10.00
2022-12-12T18:18:35.289Z,9.50
2022-12-12T18:21:03.850Z,9.27
2022-12-12T18:23:31.423Z,10.40
2022-12-12T18:26:02.791Z,9.85
2022-12-12T18:28:30.203Z,11.02
2022-12-12T18:30:57.565Z,11.13
2022-12-12T18:33:26.292Z,11.60
2022-12-12T18:36:00.797Z,12.02
2022-12-12T18:38:28.666Z,12.13
2022-12-12T18:40:56.228Z,11.88
2022-12-12T18:43:25.677Z,12.02
2022-12-12T18:45:53.123Z,11.82
2022-12-12T18:48:20.657Z,11.93
2022-12-12T18:50:48.090Z,11.57
2022-12-12T18:53:16.543Z,13.07
2022-12-12T18:55:44.771Z,11.73
2022-12-12T18:58:13.485Z,11.63
2022-12-12T19:00:41.021Z,12.30
2022-12-12T19:03:08.949Z,11.90
2022-12-12T19:05:41.433Z,11.98
2022-12-12T19:08:09.327Z,12.18
2022-12-12T19:10:37.655Z,12.02
2022-12-12T19:13:05.343Z,12.30
2022-12-12T19:15:32.721Z,13.00
2022-12-12T19:18:00.142Z,12.27
2022-12-12T19:20:27.766Z,12.70
2022-12-12T19:22:56.492Z,13.07
2022-12-12T19:25:23.983Z,12.80
2022-12-12T19:27:51.406Z,12.55
2022-12-12T19:30:18.874Z,13.15
2022-12-12T19:32:49.026Z,14.30
2022-12-12T19:35:16.697Z,13.23
2022-12-12T19:37:44.111Z,13.63
2022-12-12T19:40:12.221Z,13.55
2022-12-12T19:42:40.125Z,14.10
2022-12-12T19:45:08.410Z,12.75
2022-12-12T19:47:35.841Z,13.05
2022-12-12T19:50:03.285Z,12.38
2022-12-12T19:52:30.776Z,13.30
2022-12-12T19:54:58.261Z,12.57
2022-12-12T19:57:26.472Z,13.18
2022-12-12T19:59:54.272Z,11.95
2022-12-12T20:02:21.953Z,12.13
2022-12-12T20:04:49.446Z,13.00
2022-12-12T20:07:16.838Z,13.43
2022-12-12T20:09:44.326Z,12.90
2022-12-12T20:12:11.701Z,13.82
2022-12-12T20:14:39.218Z,12.82
2022-12-12T20:17:06.705Z,12.93
2022-12-12T20:19:34.285Z,12.90
2022-12-12T20:22:02.761Z,12.30
2022-12-12T20:24:31.503Z,11.43
2022-12-12T20:26:59.731Z,12.18
2022-12-12T20:29:27.630Z,12.63
2022-12-12T20:31:55.113Z,12.55
2022-12-12T20:34:24.606Z,12.48
2022-12-12T20:36:55.092Z,11.23
2022-12-12T20:39:22.690Z,11.40
2022-12-12T20:41:51.128Z,11.23
2022-12-12T20:44:18.695Z,11.45
2022-12-12T20:46:47.202Z,11.88
2022-12-12T20:49:17.010Z,11.48
2022-12-12T20:51:55.289Z,11.25
2022-12-12T20:54:24.524Z,11.27
2022-12-12T20:56:52.512Z,11.18
2022-12-12T20:59:20.047Z,10.68
2022-12-12T21:01:47.818Z,11.00
2022-12-12T21:04:16.042Z,11.43
2022-12-12T21:06:44.750Z,11.32
2022-12-12T21:09:17.698Z,11.20
2022-12-12T21:11:47.123Z,11.00
2022-12-12T21:14:14.617Z,11.00
2022-12-12T21:16:42.090Z,10.63
2022-12-12T21:19:11.548Z,11.13
2022-12-12T21:21:39.962Z,12.18
2022-12-12T21:24:07.613Z,11.80
2022-12-12T21:26:35.301Z,12.93
2022-12-12T21:29:03.157Z,12.68
2022-12-12T21:31:31.996Z,12.10
2022-12-12T21:34:00.023Z,12.63
2022-12-12T21:36:28.261Z,13.10
2022-12-12T21:38:56.236Z,11.80
2022-12-12T21:41:24.326Z,13.07
2022-12-12T21:43:53.078Z,12.02
2022-12-12T21:46:21.665Z,11.98
2022-12-12T21:49:12.549Z,11.80
2022-12-12T21:51:40.811Z,11.73
2022-12-12T21:54:09.205Z,11.90
2022-12-12T21:56:36.738Z,11.73
2022-12-12T21:59:04.235Z,12.52
2022-12-12T22:01:32.440Z,12.27
2022-12-12T22:04:00.413Z,12.32
2022-12-12T22:06:30.547Z,11.45
2022-12-12T22:08:58.545Z,12.27
2022-12-12T22:11:40.262Z,11.15
2022-12-12T22:14:10.608Z,10.55
2022-12-12T22:16:38.077Z,10.40
2022-12-12T22:19:09.046Z,10.73
2022-12-12T22:21:36.665Z,11.27
2022-12-12T22:24:04.833Z,10.85
2022-12-12T22:26:36.594Z,10.25
2022-12-12T22:29:08.692Z,9.98
2022-12-12T22:31:37.673Z,9.25
2022-12-12T22:34:06.700Z,9.13
2022-12-12T22:36:35.166Z,9.65
2022-12-12T22:39:02.778Z,10.05
2022-12-12T22:41:30.528Z,9.23
2022-12-12T22:44:01.897Z,9.20
2022-12-12T22:46:29.888Z,8.13
2022-12-12T22:48:59.226Z,9.18
2022-12-12T22:51:28.737Z,9.38
2022-12-12T22:53:57.072Z,8.75
2022-12-12T22:56:24.681Z,8.48
2022-12-12T22:58:52.214Z,9.20
2022-12-12T23:01:20.496Z,8.45
2022-12-12T23:03:48.132Z,8.73
2022-12-12T23:06:17.413Z,8.57
2022-12-12T23:08:49.426Z,8.55
2022-12-12T23:11:16.937Z,8.30
2022-12-12T23:13:44.902Z,8.73
2022-12-12T23:16:16.674Z,8.10
2022-12-12T23:18:44.980Z,8.32
2022-12-12T23:21:16.689Z,8.32
2022-12-12T23:23:45.371Z,8.88
2022-12-12T23:26:17.064Z,7.95
2022-12-12T23:28:45.333Z,8.07
2022-12-12T23:31:23.155Z,8.50
2022-12-12T23:33:54.626Z,7.70
2022-12-12T23:36:22.346Z,7.97
2022-12-12T23:38:49.734Z,8.20
2022-12-12T23:41:17.437Z,8.43
2022-12-12T23:43:44.865Z,8.02
2022-12-12T23:46:28.713Z,8.00
2022-12-12T23:48:56.744Z,8.32
2022-12-12T23:51:24.980Z,8.27
2022-12-12T23:53:52.482Z,8.48
2022-12-12T23:56:20.574Z,7.82
2022-12-12T23:58:48.190Z,8.65
